createdAt,value
2023-02-23T00:02:06.135Z,96471.38
2023-02-23T00:04:33.680Z,96473.19
2023-02-23T00:07:00.464Z,96470.44
2023-02-23T00:09:35.200Z,96469.13
2023-02-23T00:12:08.134Z,96458.59
2023-02-23T00:14:37.809Z,96455.84
2023-02-23T00:17:05.377Z,96456.81
2023-02-23T00:19:33.526Z,96466.44
2023-02-23T00:22:01.133Z,96463.81
2023-02-23T00:24:27.649Z,96454.00
2023-02-23T00:26:54.235Z,96459.06
2023-02-23T00:29:23.342Z,96458.38
2023-02-23T00:31:51.595Z,96454.94
2023-02-23T00:34:24.110Z,96461.94
2023-02-23T00:36:55.128Z,96460.31
2023-02-23T00:39:26.464Z,96464.38
2023-02-23T00:41:53.968Z,96469.69
2023-02-23T00:44:21.834Z,96474.44
2023-02-23T00:46:52.244Z,96462.41
2023-02-23T00:49:21.830Z,96464.84
2023-02-23T00:51:48.390Z,96470.25
2023-02-23T00:54:16.572Z,96464.19
2023-02-23T00:56:43.064Z,96475.63
2023-02-23T00:59:10.036Z,96473.19
2023-02-23T01:01:37.813Z,96464.53
2023-02-23T01:04:05.184Z,96467.88
2023-02-23T01:06:32.602Z,96468.31
2023-02-23T01:08:59.283Z,96470.72
2023-02-23T01:11:28.474Z,96476.81
2023-02-23T01:13:57.564Z,96470.47
2023-02-23T01:16:28.780Z,96476.00
2023-02-23T01:18:57.461Z,96472.47
2023-02-23T01:21:27.756Z,96465.81
2023-02-23T01:23:55.009Z,96467.72
2023-02-23T01:26:24.265Z,96458.38
2023-02-23T01:28:55.904Z,96458.81
2023-02-23T01:31:24.182Z,96457.75
2023-02-23T01:33:59.027Z,96457.31
2023-02-23T01:36:26.520Z,96454.94
2023-02-23T01:38:59.981Z,96455.31
2023-02-23T01:41:29.787Z,96455.00
2023-02-23T01:44:05.032Z,96445.03
2023-02-23T01:46:39.251Z,96451.72
2023-02-23T01:49:10.051Z,96449.44
2023-02-23T01:51:43.232Z,96440.19
2023-02-23T01:54:14.581Z,96442.72
2023-02-23T01:56:43.812Z,96440.53
2023-02-23T01:59:15.338Z,96436.25
2023-02-23T02:01:42.732Z,96438.94
2023-02-23T02:04:16.368Z,96438.28
2023-02-23T02:06:47.177Z,96435.19
2023-02-23T02:09:17.335Z,96436.38
2023-02-23T02:11:46.438Z,96430.97
2023-02-23T02:14:27.398Z,96431.69
2023-02-23T02:17:20.924Z,96435.72
2023-02-23T02:20:26.542Z,96435.25
2023-02-23T02:23:17.756Z,96430.88
2023-02-23T02:25:47.023Z,96434.09
2023-02-23T02:28:32.705Z,96425.28
2023-02-23T02:31:24.053Z,96432.28
2023-02-23T02:34:15.937Z,96438.56
2023-02-23T02:36:42.274Z,96436.84
2023-02-23T02:39:22.927Z,96438.94
2023-02-23T02:42:21.696Z,96432.72
2023-02-23T02:45:00.235Z,96439.75
2023-02-23T02:47:52.826Z,96431.28
2023-02-23T02:50:46.325Z,96436.53
2023-02-23T02:53:20.623Z,96427.09
2023-02-23T02:55:48.968Z,96423.16
2023-02-23T02:58:17.914Z,96432.22
2023-02-23T03:01:06.971Z,96429.34
2023-02-23T03:03:56.316Z,96439.47
2023-02-23T03:06:49.053Z,96438.00
2023-02-23T03:09:53.302Z,96446.56
2023-02-23T03:13:07.090Z,96439.19
2023-02-23T03:16:24.208Z,96449.63
2023-02-23T03:19:29.627Z,96443.44
2023-02-23T03:22:51.084Z,96444.94
2023-02-23T03:25:50.731Z,96442.28
2023-02-23T03:28:40.038Z,96438.53
2023-02-23T03:31:53.023Z,96440.38
2023-02-23T03:34:51.563Z,96451.44
2023-02-23T03:37:40.983Z,96450.44
2023-02-23T03:40:30.420Z,96444.75
2023-02-23T03:43:26.001Z,96439.97
2023-02-23T03:46:12.639Z,96446.59
2023-02-23T03:49:08.820Z,96445.88
2023-02-23T03:51:58.777Z,96450.38
2023-02-23T03:54:57.671Z,96452.22
2023-02-23T03:57:46.354Z,96444.75
2023-02-23T04:00:39.424Z,96448.41
2023-02-23T04:03:27.028Z,96441.50
2023-02-23T04:06:14.354Z,96447.78
2023-02-23T04:09:07.581Z,96448.16
2023-02-23T04:12:01.542Z,96454.63
2023-02-23T04:14:48.715Z,96443.03
2023-02-23T04:17:16.547Z,96445.47
2023-02-23T04:19:53.149Z,96450.19
2023-02-23T04:22:20.347Z,96444.91
2023-02-23T04:24:47.106Z,96459.63
2023-02-23T04:27:14.461Z,96460.09
2023-02-23T04:29:41.044Z,96457.34
2023-02-23T04:32:12.421Z,96462.56
2023-02-23T04:34:38.936Z,96457.63
2023-02-23T04:37:05.463Z,96457.13
2023-02-23T04:39:37.868Z,96461.38
2023-02-23T04:42:04.667Z,96460.94
2023-02-23T04:44:31.197Z,96459.28
2023-02-23T04:46:58.200Z,96462.03
2023-02-23T04:49:25.849Z,96459.19
2023-02-23T04:51:52.284Z,96463.03
2023-02-23T04:54:18.770Z,96466.66
2023-02-23T04:56:45.212Z,96463.25
2023-02-23T04:59:11.658Z,96466.22
2023-02-23T05:01:38.142Z,96466.50
2023-02-23T05:04:04.755Z,96463.84
2023-02-23T05:06:33.384Z,96463.91
2023-02-23T05:09:00.048Z,96460.13
2023-02-23T05:11:27.799Z,96462.66
2023-02-23T05:13:54.843Z,96461.91
2023-02-23T05:16:21.693Z,96465.25
2023-02-23T05:18:48.387Z,96462.41
2023-02-23T05:21:14.976Z,96467.41
2023-02-23T05:23:41.686Z,96467.28
2023-02-23T05:26:10.875Z,96462.34
2023-02-23T05:28:39.104Z,96471.50
2023-02-23T05:31:05.992Z,96467.91
2023-02-23T05:33:34.089Z,96462.28
2023-02-23T05:36:04.134Z,96466.28
2023-02-23T05:38:30.611Z,96472.50
2023-02-23T05:40:57.169Z,96469.06
2023-02-23T05:43:23.688Z,96473.72
2023-02-23T05:45:50.142Z,96471.66
2023-02-23T05:48:16.639Z,96466.16
2023-02-23T05:50:43.135Z,96463.09
2023-02-23T05:53:10.469Z,96466.28
2023-02-23T05:55:37.557Z,96473.94
2023-02-23T05:58:04.066Z,96474.19
2023-02-23T06:00:30.649Z,96478.50
2023-02-23T06:02:59.134Z,96467.19
2023-02-23T06:05:25.560Z,96473.88
2023-02-23T06:07:52.181Z,96472.09
2023-02-23T06:10:18.762Z,96460.50
2023-02-23T06:12:45.277Z,96470.41
2023-02-23T06:15:11.750Z,96474.03
2023-02-23T06:17:38.233Z,96474.25
2023-02-23T06:20:07.088Z,96480.31
2023-02-23T06:22:33.590Z,96489.56
2023-02-23T06:25:00.043Z,96490.16
2023-02-23T06:27:26.492Z,96487.28
2023-02-23T06:29:53.424Z,96494.03
2023-02-23T06:32:20.944Z,96489.66
2023-02-23T06:34:47.403Z,96493.16
2023-02-23T06:37:13.857Z,96494.72
2023-02-23T06:39:40.298Z,96500.22
2023-02-23T06:42:06.753Z,96503.19
2023-02-23T06:44:35.758Z,96504.69
2023-02-23T06:47:05.696Z,96511.94
2023-02-23T06:49:35.297Z,96511.75
2023-02-23T06:52:01.774Z,96518.53
2023-02-23T06:54:29.319Z,96530.00
2023-02-23T06:56:56.659Z,96524.72
2023-02-23T06:59:24.327Z,96519.88
2023-02-23T07:01:51.069Z,96529.28
2023-02-23T07:04:17.636Z,96529.09
2023-02-23T07:06:44.212Z,96532.41
2023-02-23T07:09:10.697Z,96536.81
2023-02-23T07:11:37.163Z,96530.69
2023-02-23T07:14:03.655Z,96533.81
2023-02-23T07:16:32.889Z,96533.72
2023-02-23T07:18:59.381Z,96537.53
2023-02-23T07:21:25.938Z,96532.88
2023-02-23T07:23:52.414Z,96536.16
2023-02-23T07:26:18.876Z,96533.16
2023-02-23T07:28:45.468Z,96536.88
2023-02-23T07:31:12.156Z,96533.66
2023-02-23T07:33:38.658Z,96542.97
2023-02-23T07:36:05.933Z,96529.63
2023-02-23T07:38:32.425Z,96531.47
2023-02-23T07:40:58.937Z,96537.56
2023-02-23T07:43:26.453Z,96526.84
2023-02-23T07:45:53.038Z,96516.66
2023-02-23T07:48:20.133Z,96526.56
2023-02-23T07:50:46.786Z,96533.81
2023-02-23T07:53:13.261Z,96528.13
2023-02-23T07:55:40.196Z,96529.13
2023-02-23T07:58:07.440Z,96529.78
2023-02-23T08:00:40.143Z,96526.69
2023-02-23T08:03:07.201Z,96522.97
2023-02-23T08:05:33.773Z,96526.94
2023-02-23T08:08:00.255Z,96520.75
2023-02-23T08:10:26.899Z,96529.72
2023-02-23T08:12:53.402Z,96531.41
2023-02-23T08:15:19.917Z,96530.69
2023-02-23T08:17:46.349Z,96525.38
2023-02-23T08:20:12.943Z,96527.19
2023-02-23T08:22:48.908Z,96531.31
2023-02-23T08:25:17.037Z,96528.50
2023-02-23T08:27:43.518Z,96529.53
2023-02-23T08:30:10.768Z,96538.16
2023-02-23T08:32:37.336Z,96538.50
2023-02-23T08:35:04.037Z,96536.84
2023-02-23T08:37:30.703Z,96529.00
2023-02-23T08:39:57.686Z,96536.03
2023-02-23T08:42:30.386Z,96530.84
2023-02-23T08:44:56.799Z,96534.00
2023-02-23T08:47:24.355Z,96535.94
2023-02-23T08:49:51.016Z,96539.28
2023-02-23T08:52:17.746Z,96532.13
2023-02-23T08:54:44.162Z,96536.97
2023-02-23T08:57:12.581Z,96537.47
2023-02-23T08:59:40.161Z,96529.19
2023-02-23T09:02:08.447Z,96540.34
2023-02-23T09:04:35.875Z,96539.25
2023-02-23T09:07:03.096Z,96538.63
2023-02-23T09:09:35.550Z,96543.22
2023-02-23T09:12:02.141Z,96539.09
2023-02-23T09:14:30.268Z,96536.16
2023-02-23T09:16:56.727Z,96530.81
2023-02-23T09:19:23.128Z,96536.22
2023-02-23T09:21:49.686Z,96539.91
2023-02-23T09:24:18.571Z,96538.19
2023-02-23T09:26:46.006Z,96535.22
2023-02-23T09:29:12.500Z,96537.59
2023-02-23T09:31:39.427Z,96535.69
2023-02-23T09:34:05.937Z,96530.25
2023-02-23T09:36:32.384Z,96533.81
2023-02-23T09:38:59.032Z,96535.22
2023-02-23T09:41:25.362Z,96530.69
2023-02-23T09:44:02.379Z,96535.75
2023-02-23T09:46:53.427Z,96535.41
2023-02-23T09:49:25.314Z,96538.53
2023-02-23T09:51:57.679Z,96543.03
2023-02-23T09:54:30.294Z,96536.47
2023-02-23T09:57:01.014Z,96535.16
2023-02-23T09:59:28.827Z,96541.72
2023-02-23T10:02:20.131Z,96530.88
2023-02-23T10:04:50.473Z,96535.44
2023-02-23T10:07:39.975Z,96532.25
2023-02-23T10:10:44.348Z,96536.28
2023-02-23T10:13:34.112Z,96532.47
2023-02-23T10:16:30.320Z,96525.78
2023-02-23T10:19:04.111Z,96532.91
2023-02-23T10:21:42.025Z,96539.03
2023-02-23T10:24:29.500Z,96529.59
2023-02-23T10:27:10.175Z,96539.84
2023-02-23T10:29:51.632Z,96541.75
2023-02-23T10:32:59.657Z,96533.56
2023-02-23T10:35:29.207Z,96541.91
2023-02-23T10:38:00.004Z,96541.66
2023-02-23T10:40:29.110Z,96538.38
2023-02-23T10:42:58.154Z,96532.75
2023-02-23T10:45:27.573Z,96536.53
2023-02-23T10:48:02.025Z,96528.88
2023-02-23T10:50:30.461Z,96537.66
2023-02-23T10:53:25.206Z,96543.25
2023-02-23T10:56:13.842Z,96545.53
2023-02-23T10:58:47.692Z,96548.69
2023-02-23T11:01:36.217Z,96537.00
2023-02-23T11:04:25.468Z,96547.19
2023-02-23T11:07:29.399Z,96534.69
2023-02-23T11:10:00.433Z,96542.72
2023-02-23T11:12:37.695Z,96539.84
2023-02-23T11:15:38.895Z,96541.81
2023-02-23T11:18:20.279Z,96529.69
2023-02-23T11:20:48.354Z,96542.66
2023-02-23T11:23:24.371Z,96520.69
2023-02-23T11:25:55.437Z,96523.81
2023-02-23T11:28:30.262Z,96516.47
2023-02-23T11:31:13.851Z,96516.47
2023-02-23T11:33:40.979Z,96515.66
2023-02-23T11:36:16.611Z,96513.69
2023-02-23T11:38:45.312Z,96515.66
2023-02-23T11:41:24.201Z,96511.09
2023-02-23T11:43:53.151Z,96506.59
2023-02-23T11:46:24.136Z,96511.78
2023-02-23T11:48:57.227Z,96499.53
2023-02-23T11:51:28.789Z,96510.16
2023-02-23T11:53:57.182Z,96503.41
2023-02-23T11:56:25.778Z,96503.69
2023-02-23T11:59:04.435Z,96509.47
2023-02-23T12:01:47.175Z,96502.50
2023-02-23T12:04:29.538Z,96500.31
2023-02-23T12:07:17.995Z,96500.94
2023-02-23T12:09:47.330Z,96494.34
2023-02-23T12:12:20.819Z,96495.16
2023-02-23T12:15:00.649Z,96491.97
2023-02-23T12:17:34.811Z,96494.25
2023-02-23T12:20:11.099Z,96483.75
2023-02-23T12:22:49.705Z,96496.78
2023-02-23T12:25:33.333Z,96506.09
2023-02-23T12:28:18.870Z,96504.44
2023-02-23T12:30:54.955Z,96500.25
2023-02-23T12:33:30.177Z,96498.31
2023-02-23T12:36:09.020Z,96500.06
2023-02-23T12:38:56.183Z,96495.97
2023-02-23T12:41:35.476Z,96491.41
2023-02-23T12:44:35.641Z,96493.78
2023-02-23T12:47:09.088Z,96495.78
2023-02-23T12:49:48.078Z,96485.28
2023-02-23T12:52:34.745Z,96492.41
2023-02-23T12:55:01.172Z,96480.31
2023-02-23T12:57:27.846Z,96481.00
2023-02-23T13:00:28.003Z,96483.25
2023-02-23T13:03:32.922Z,96482.50
2023-02-23T13:06:06.776Z,96473.97
2023-02-23T13:08:48.165Z,96469.38
2023-02-23T13:11:35.721Z,96473.75
2023-02-23T13:14:37.284Z,96475.44
2023-02-23T13:17:31.744Z,96471.22
2023-02-23T13:20:04.076Z,96471.69
2023-02-23T13:22:52.176Z,96468.72
2023-02-23T13:25:34.741Z,96457.94
2023-02-23T13:28:05.885Z,96465.84
2023-02-23T13:30:32.634Z,96466.13
2023-02-23T13:33:12.367Z,96468.28
2023-02-23T13:35:39.189Z,96468.72
2023-02-23T13:38:43.388Z,96456.41
2023-02-23T13:41:41.826Z,96457.38
2023-02-23T13:44:26.409Z,96455.88
2023-02-23T13:47:04.997Z,96450.94
2023-02-23T13:49:47.564Z,96448.97
2023-02-23T13:52:33.379Z,96457.97
2023-02-23T13:55:03.884Z,96451.75
2023-02-23T13:57:32.618Z,96450.50
2023-02-23T14:00:00.373Z,96454.63
2023-02-23T14:02:38.735Z,96456.31
2023-02-23T14:05:27.621Z,96458.31
2023-02-23T14:08:02.361Z,96457.69
2023-02-23T14:10:38.839Z,96448.44
2023-02-23T14:13:14.186Z,96465.41
2023-02-23T14:15:53.667Z,96455.69
2023-02-23T14:18:26.072Z,96451.56
2023-02-23T14:20:55.634Z,96451.94
2023-02-23T14:23:22.013Z,96457.78
2023-02-23T14:26:11.105Z,96452.69
2023-02-23T14:28:43.321Z,96454.34
2023-02-23T14:31:12.748Z,96450.06
2023-02-23T14:33:41.989Z,96445.50
2023-02-23T14:36:23.661Z,96452.44
2023-02-23T14:38:53.290Z,96441.41
2023-02-23T14:41:43.520Z,96443.66
2023-02-23T14:44:28.903Z,96447.00
2023-02-23T14:46:56.983Z,96448.50
2023-02-23T14:49:28.427Z,96448.56
2023-02-23T14:51:58.552Z,96440.69
2023-02-23T14:54:31.852Z,96430.66
2023-02-23T14:57:01.274Z,96434.69
2023-02-23T14:59:35.854Z,96432.47
2023-02-23T15:02:09.289Z,96436.06
2023-02-23T15:04:38.615Z,96435.69
2023-02-23T15:07:06.899Z,96437.56
2023-02-23T15:09:40.239Z,96435.22
2023-02-23T15:12:23.332Z,96437.91
2023-02-23T15:14:50.320Z,96434.28
2023-02-23T15:17:20.803Z,96437.03
2023-02-23T15:20:14.852Z,96437.97
2023-02-23T15:22:41.893Z,96445.94
2023-02-23T15:25:24.241Z,96429.91
2023-02-23T15:27:51.881Z,96430.84
2023-02-23T15:30:31.095Z,96434.38
2023-02-23T15:33:05.573Z,96432.00
2023-02-23T15:35:45.561Z,96435.34
2023-02-23T15:38:41.825Z,96428.53
2023-02-23T15:41:09.376Z,96424.66
2023-02-23T15:43:35.921Z,96435.53
2023-02-23T15:46:05.733Z,96432.78
2023-02-23T15:48:45.946Z,96430.03
2023-02-23T15:51:36.159Z,96432.66
2023-02-23T15:54:14.137Z,96426.91
2023-02-23T15:56:41.200Z,96420.00
2023-02-23T15:59:14.366Z,96432.16
2023-02-23T16:01:53.949Z,96428.47
2023-02-23T16:04:25.754Z,96427.22
2023-02-23T16:06:53.882Z,96433.66
2023-02-23T16:09:26.474Z,96426.72
2023-02-23T16:12:14.339Z,96428.63
2023-02-23T16:14:47.882Z,96433.53
2023-02-23T16:17:52.042Z,96437.09
2023-02-23T16:20:47.784Z,96433.28
2023-02-23T16:23:34.397Z,96426.16
2023-02-23T16:26:26.565Z,96434.03
2023-02-23T16:29:00.508Z,96441.59
2023-02-23T16:31:50.550Z,96437.41
2023-02-23T16:34:26.962Z,96438.75
2023-02-23T16:36:59.208Z,96430.19
2023-02-23T16:39:30.878Z,96434.63
2023-02-23T16:41:58.639Z,96437.13
2023-02-23T16:44:34.308Z,96439.09
2023-02-23T16:47:08.270Z,96434.38
2023-02-23T16:49:34.794Z,96433.66
2023-02-23T16:52:12.785Z,96439.88
2023-02-23T16:54:39.176Z,96442.75
2023-02-23T16:57:24.253Z,96440.28
2023-02-23T16:59:52.813Z,96436.13
2023-02-23T17:02:25.229Z,96438.22
2023-02-23T17:04:52.830Z,96445.47
2023-02-23T17:07:24.060Z,96449.34
2023-02-23T17:09:51.700Z,96451.72
2023-02-23T17:12:21.715Z,96453.16
2023-02-23T17:14:49.585Z,96455.25
2023-02-23T17:17:17.643Z,96455.63
2023-02-23T17:19:45.543Z,96459.16
2023-02-23T17:22:13.055Z,96456.31
2023-02-23T17:24:41.495Z,96461.53
2023-02-23T17:27:08.067Z,96464.16
2023-02-23T17:29:34.766Z,96459.78
2023-02-23T17:32:07.755Z,96459.78
2023-02-23T17:34:40.881Z,96457.41
2023-02-23T17:37:08.065Z,96459.81
2023-02-23T17:39:37.509Z,96465.69
2023-02-23T17:42:04.279Z,96456.97
2023-02-23T17:44:30.952Z,96462.53
2023-02-23T17:46:57.413Z,96461.16
2023-02-23T17:49:25.463Z,96459.00
2023-02-23T17:51:52.337Z,96466.09
2023-02-23T17:54:18.801Z,96462.00
2023-02-23T17:56:45.278Z,96461.09
2023-02-23T17:59:11.711Z,96461.16
2023-02-23T18:01:38.383Z,96456.41
2023-02-23T18:04:05.037Z,96453.56
2023-02-23T18:06:31.496Z,96453.16
2023-02-23T18:08:58.202Z,96451.84
2023-02-23T18:11:25.023Z,96452.97
2023-02-23T18:13:52.818Z,96453.31
2023-02-23T18:16:19.553Z,96443.38
2023-02-23T18:18:49.054Z,96453.75
2023-02-23T18:21:18.861Z,96451.78
2023-02-23T18:23:46.116Z,96455.38
2023-02-23T18:26:18.719Z,96454.75
2023-02-23T18:28:46.356Z,96454.66
2023-02-23T18:31:15.591Z,96459.31
2023-02-23T18:33:42.621Z,96458.06
2023-02-23T18:36:27.918Z,96459.34
2023-02-23T18:38:56.825Z,96458.25
2023-02-23T18:41:24.582Z,96457.50
2023-02-23T18:43:51.842Z,96453.38
2023-02-23T18:46:18.718Z,96452.34
2023-02-23T18:48:48.587Z,96452.56
2023-02-23T18:51:15.024Z,96437.59
2023-02-23T18:53:42.143Z,96451.03
2023-02-23T18:56:14.365Z,96449.88
2023-02-23T18:58:42.135Z,96447.75
2023-02-23T19:01:18.168Z,96443.28
2023-02-23T19:03:45.800Z,96441.59
2023-02-23T19:06:13.235Z,96435.69
2023-02-23T19:08:43.288Z,96434.34
2023-02-23T19:11:10.298Z,96434.25
2023-02-23T19:13:38.119Z,96437.34
2023-02-23T19:16:06.991Z,96428.38
2023-02-23T19:18:37.540Z,96432.78
2023-02-23T19:21:04.720Z,96429.22
2023-02-23T19:23:31.784Z,96427.06
2023-02-23T19:25:59.054Z,96421.19
2023-02-23T19:28:30.619Z,96427.44
2023-02-23T19:31:12.372Z,96423.53
2023-02-23T19:33:39.115Z,96431.94
2023-02-23T19:36:09.553Z,96427.47
2023-02-23T19:38:39.178Z,96424.09
2023-02-23T19:41:07.504Z,96427.72
2023-02-23T19:43:34.210Z,96424.34
2023-02-23T19:46:06.760Z,96424.44
2023-02-23T19:48:33.712Z,96424.97
2023-02-23T19:51:00.427Z,96424.09
2023-02-23T19:53:28.111Z,96419.38
2023-02-23T19:56:03.219Z,96424.81
2023-02-23T19:58:29.676Z,96424.28
2023-02-23T20:01:02.852Z,96427.31
2023-02-23T20:03:29.293Z,96431.09
2023-02-23T20:05:56.540Z,96428.47
2023-02-23T20:08:24.250Z,96434.50
2023-02-23T20:10:51.764Z,96437.13
2023-02-23T20:13:24.273Z,96450.63
2023-02-23T20:15:50.774Z,96437.81
2023-02-23T20:18:17.311Z,96437.38
2023-02-23T20:20:52.854Z,96442.69
2023-02-23T20:23:19.432Z,96446.56
2023-02-23T20:25:45.957Z,96443.72
2023-02-23T20:28:12.406Z,96446.59
2023-02-23T20:30:39.961Z,96440.22
2023-02-23T20:33:09.297Z,96438.03
2023-02-23T20:35:35.808Z,96435.25
2023-02-23T20:38:04.219Z,96437.56
2023-02-23T20:40:36.023Z,96434.66
2023-02-23T20:43:04.562Z,96425.72
2023-02-23T20:45:31.240Z,96426.38
2023-02-23T20:48:09.455Z,96418.06
2023-02-23T20:50:37.034Z,96426.75
2023-02-23T20:53:05.704Z,96420.34
2023-02-23T20:55:32.829Z,96414.88
2023-02-23T20:58:14.191Z,96402.78
2023-02-23T21:00:40.697Z,96419.34
2023-02-23T21:03:07.258Z,96418.25
2023-02-23T21:05:39.194Z,96417.66
2023-02-23T21:08:08.347Z,96413.03
2023-02-23T21:10:39.795Z,96418.34
2023-02-23T21:13:08.078Z,96409.69
2023-02-23T21:15:35.107Z,96412.75
2023-02-23T21:18:01.593Z,96401.75
2023-02-23T21:20:28.632Z,96401.63
2023-02-23T21:22:55.756Z,96411.50
2023-02-23T21:25:25.398Z,96404.66
2023-02-23T21:27:56.371Z,96403.06
2023-02-23T21:30:24.649Z,96414.66
2023-02-23T21:32:53.066Z,96413.69
2023-02-23T21:35:20.412Z,96415.16
2023-02-23T21:37:48.112Z,96414.00
2023-02-23T21:40:20.439Z,96409.63
2023-02-23T21:42:50.607Z,96412.22
2023-02-23T21:45:23.040Z,96413.50
2023-02-23T21:47:49.635Z,96408.16
2023-02-23T21:50:21.347Z,96413.69
2023-02-23T21:52:48.730Z,96403.56
2023-02-23T21:55:24.480Z,96407.28
2023-02-23T21:58:02.739Z,96410.94
2023-02-23T22:00:30.791Z,96411.09
2023-02-23T22:02:57.470Z,96407.31
2023-02-23T22:05:23.901Z,96408.03
2023-02-23T22:07:52.606Z,96405.00
2023-02-23T22:10:20.764Z,96404.53
2023-02-23T22:12:50.078Z,96400.47
2023-02-23T22:15:17.549Z,96388.69
2023-02-23T22:17:44.174Z,96400.13
2023-02-23T22:20:11.836Z,96400.78
2023-02-23T22:22:38.330Z,96400.44
2023-02-23T22:25:07.685Z,96399.97
2023-02-23T22:27:34.272Z,96402.78
2023-02-23T22:30:01.515Z,96394.75
2023-02-23T22:32:32.668Z,96393.69
2023-02-23T22:35:00.290Z,96386.63
2023-02-23T22:37:40.992Z,96385.00
2023-02-23T22:40:16.687Z,96389.53
2023-02-23T22:42:48.432Z,96385.81
2023-02-23T22:45:17.652Z,96389.56
2023-02-23T22:47:51.195Z,96381.03
2023-02-23T22:50:19.250Z,96385.63
2023-02-23T22:52:46.295Z,96391.66
2023-02-23T22:55:13.146Z,96380.06
2023-02-23T22:57:40.297Z,96391.53
2023-02-23T23:00:15.495Z,96375.63
2023-02-23T23:02:42.432Z,96372.38
2023-02-23T23:05:17.833Z,96381.19
2023-02-23T23:07:46.988Z,96381.06
2023-02-23T23:10:15.640Z,96381.09
2023-02-23T23:12:42.200Z,96386.47
2023-02-23T23:15:17.415Z,96383.78
2023-02-23T23:17:50.591Z,96383.78
2023-02-23T23:20:25.639Z,96382.53
2023-02-23T23:22:53.189Z,96372.53
2023-02-23T23:25:23.303Z,96373.66
2023-02-23T23:27:52.498Z,96375.28
2023-02-23T23:30:29.370Z,96373.00
2023-02-23T23:32:57.622Z,96369.44
2023-02-23T23:35:26.219Z,96364.66
2023-02-23T23:37:52.825Z,96365.47
2023-02-23T23:40:24.196Z,96365.47
2023-02-23T23:42:52.586Z,96363.53
2023-02-23T23:45:24.229Z,96356.50
2023-02-23T23:47:50.921Z,96358.59
2023-02-23T23:50:17.801Z,96351.38
2023-02-23T23:52:45.106Z,96351.06
2023-02-23T23:55:14.671Z,96348.97
2023-02-23T23:57:42.342Z,96341.41
